sensor_id;sensor_type;location;lat;lon;timestamp;P1;durP1;ratioP1;P2;durP2;ratioP2
48524;SDS011;34316;51.514;-0.178;2023-07-02T00:01:29;10.05;;;6.38;;
48524;SDS011;34316;51.514;-0.178;2023-07-02T00:03:31;9.48;;;6.75;;
48524;SDS011;34316;51.514;-0.178;2023-07-02T00:05:33;11.10;;;7.18;;
48524;SDS011;34316;51.514;-0.178;2023-07-02T00:07:34;14.82;;;7.47;;
48524;SDS011;34316;51.514;-0.178;2023-07-02T00:09:38;12.60;;;6.68;;
48524;SDS011;34316;51.514;-0.178;2023-07-02T00:11:40;14.85;;;6.53;;
48524;SDS011;34316;51.514;-0.178;2023-07-02T00:13:47;12.40;;;7.20;;
48524;SDS011;34316;51.514;-0.178;2023-07-02T00:15:49;10.00;;;6.90;;
48524;SDS011;34316;51.514;-0.178;2023-07-02T00:17:50;10.27;;;6.93;;
48524;SDS011;34316;51.514;-0.178;2023-07-02T00:19:52;10.30;;;6.95;;
48524;SDS011;34316;51.514;-0.178;2023-07-02T00:21:54;11.75;;;7.28;;
48524;SDS011;34316;51.514;-0.178;2023-07-02T00:23:56;11.70;;;7.10;;
48524;SDS011;34316;51.514;-0.178;2023-07-02T00:25:59;12.13;;;7.35;;
48524;SDS011;34316;51.514;-0.178;2023-07-02T00:28:01;11.90;;;7.53;;
48524;SDS011;34316;51.514;-0.178;2023-07-02T00:30:02;11.27;;;7.00;;
48524;SDS011;34316;51.514;-0.178;2023-07-02T00:32:04;10.20;;;6.85;;
48524;SDS011;34316;51.514;-0.178;2023-07-02T00:34:06;12.93;;;7.45;;
48524;SDS011;34316;51.514;-0.178;2023-07-02T00:36:08;11.80;;;7.00;;
48524;SDS011;34316;51.514;-0.178;2023-07-02T00:38:15;9.75;;;7.20;;
48524;SDS011;34316;51.514;-0.178;2023-07-02T00:40:17;12.52;;;6.75;;
48524;SDS011;34316;51.514;-0.178;2023-07-02T00:42:19;14.63;;;7.15;;
48524;SDS011;34316;51.514;-0.178;2023-07-02T00:44:21;9.77;;;7.15;;
48524;SDS011;34316;51.514;-0.178;2023-07-02T00:46:26;11.77;;;7.20;;
48524;SDS011;34316;51.514;-0.178;2023-07-02T00:48:29;10.40;;;7.43;;
48524;SDS011;34316;51.514;-0.178;2023-07-02T00:50:31;9.85;;;7.47;;
48524;SDS011;34316;51.514;-0.178;2023-07-02T00:52:33;11.25;;;6.30;;
48524;SDS011;34316;51.514;-0.178;2023-07-02T00:54:34;14.52;;;8.30;;
48524;SDS011;34316;51.514;-0.178;2023-07-02T00:56:37;10.23;;;7.00;;
48524;SDS011;34316;51.514;-0.178;2023-07-02T00:58:40;11.90;;;6.88;;
48524;SDS011;34316;51.514;-0.178;2023-07-02T01:00:47;11.40;;;7.30;;
48524;SDS011;34316;51.514;-0.178;2023-07-02T01:02:53;16.58;;;7.57;;
48524;SDS011;34316;51.514;-0.178;2023-07-02T01:04:58;12.35;;;6.70;;
48524;SDS011;34316;51.514;-0.178;2023-07-02T01:07:02;14.43;;;6.60;;
48524;SDS011;34316;51.514;-0.178;2023-07-02T01:09:10;14.10;;;9.02;;
48524;SDS011;34316;51.514;-0.178;2023-07-02T01:11:12;11.25;;;8.43;;
48524;SDS011;34316;51.514;-0.178;2023-07-02T01:13:14;11.98;;;7.70;;
48524;SDS011;34316;51.514;-0.178;2023-07-02T01:15:18;10.27;;;7.13;;
48524;SDS011;34316;51.514;-0.178;2023-07-02T01:17:20;11.27;;;6.88;;
48524;SDS011;34316;51.514;-0.178;2023-07-02T01:21:43;10.68;;;7.05;;
48524;SDS011;34316;51.514;-0.178;2023-07-02T01:23:46;11.93;;;7.57;;
48524;SDS011;34316;51.514;-0.178;2023-07-02T01:25:50;8.57;;;6.43;;
48524;SDS011;34316;51.514;-0.178;2023-07-02T01:27:53;10.25;;;6.25;;
48524;SDS011;34316;51.514;-0.178;2023-07-02T01:29:54;10.98;;;6.32;;
48524;SDS011;34316;51.514;-0.178;2023-07-02T01:31:56;11.02;;;6.53;;
48524;SDS011;34316;51.514;-0.178;2023-07-02T01:33:58;9.00;;;6.82;;
48524;SDS011;34316;51.514;-0.178;2023-07-02T01:36:00;10.77;;;7.18;;
48524;SDS011;34316;51.514;-0.178;2023-07-02T01:38:02;9.85;;;6.95;;
48524;SDS011;34316;51.514;-0.178;2023-07-02T01:40:03;11.20;;;7.47;;
48524;SDS011;34316;51.514;-0.178;2023-07-02T01:42:13;12.00;;;6.97;;
48524;SDS011;34316;51.514;-0.178;2023-07-02T01:44:20;10.70;;;7.40;;
48524;SDS011;34316;51.514;-0.178;2023-07-02T01:46:22;9.77;;;6.90;;
48524;SDS011;34316;51.514;-0.178;2023-07-02T01:48:24;13.18;;;6.78;;
48524;SDS011;34316;51.514;-0.178;2023-07-02T01:50:26;14.43;;;7.45;;
48524;SDS011;34316;51.514;-0.178;2023-07-02T01:52:28;10.57;;;7.22;;
48524;SDS011;34316;51.514;-0.178;2023-07-02T01:54:35;12.80;;;7.45;;
48524;SDS011;34316;51.514;-0.178;2023-07-02T01:56:37;10.93;;;7.55;;
48524;SDS011;34316;51.514;-0.178;2023-07-02T01:58:38;10.07;;;7.30;;
48524;SDS011;34316;51.514;-0.178;2023-07-02T02:00:40;10.25;;;7.20;;
48524;SDS011;34316;51.514;-0.178;2023-07-02T02:02:42;11.57;;;7.05;;
48524;SDS011;34316;51.514;-0.178;2023-07-02T02:04:44;10.10;;;6.95;;
48524;SDS011;34316;51.514;-0.178;2023-07-02T02:06:46;11.25;;;7.10;;
48524;SDS011;34316;51.514;-0.178;2023-07-02T02:08:48;12.05;;;6.70;;
48524;SDS011;34316;51.514;-0.178;2023-07-02T02:10:49;10.07;;;6.68;;
48524;SDS011;34316;51.514;-0.178;2023-07-02T02:12:51;10.38;;;6.93;;
48524;SDS011;34316;51.514;-0.178;2023-07-02T02:14:53;12.68;;;6.78;;
48524;SDS011;34316;51.514;-0.178;2023-07-02T02:16:55;11.18;;;6.65;;
48524;SDS011;34316;51.514;-0.178;2023-07-02T02:18:56;9.90;;;6.82;;
48524;SDS011;34316;51.514;-0.178;2023-07-02T02:20:58;11.88;;;7.43;;
48524;SDS011;34316;51.514;-0.178;2023-07-02T02:23:00;8.77;;;6.80;;
48524;SDS011;34316;51.514;-0.178;2023-07-02T02:25:02;9.15;;;6.90;;
48524;SDS011;34316;51.514;-0.178;2023-07-02T02:27:05;11.00;;;6.75;;
48524;SDS011;34316;51.514;-0.178;2023-07-02T02:29:07;8.95;;;6.78;;
48524;SDS011;34316;51.514;-0.178;2023-07-02T02:31:09;9.40;;;7.03;;
48524;SDS011;34316;51.514;-0.178;2023-07-02T02:33:11;11.45;;;7.07;;
48524;SDS011;34316;51.514;-0.178;2023-07-02T02:35:13;11.20;;;6.82;;
48524;SDS011;34316;51.514;-0.178;2023-07-02T02:37:14;10.75;;;7.95;;
48524;SDS011;34316;51.514;-0.178;2023-07-02T02:39:16;9.50;;;6.75;;
48524;SDS011;34316;51.514;-0.178;2023-07-02T02:41:18;13.32;;;8.05;;
48524;SDS011;34316;51.514;-0.178;2023-07-02T02:43:19;13.32;;;7.15;;
48524;SDS011;34316;51.514;-0.178;2023-07-02T02:45:22;10.65;;;7.63;;
48524;SDS011;34316;51.514;-0.178;2023-07-02T02:47:23;13.60;;;7.40;;
48524;SDS011;34316;51.514;-0.178;2023-07-02T02:49:25;16.60;;;7.95;;
48524;SDS011;34316;51.514;-0.178;2023-07-02T02:51:27;11.65;;;7.57;;
48524;SDS011;34316;51.514;-0.178;2023-07-02T02:53:29;10.90;;;6.85;;
48524;SDS011;34316;51.514;-0.178;2023-07-02T02:55:30;13.27;;;7.00;;
48524;SDS011;34316;51.514;-0.178;2023-07-02T02:57:32;11.40;;;7.35;;
48524;SDS011;34316;51.514;-0.178;2023-07-02T02:59:34;11.95;;;7.80;;
48524;SDS011;34316;51.514;-0.178;2023-07-02T03:01:36;14.45;;;7.68;;
48524;SDS011;34316;51.514;-0.178;2023-07-02T03:03:38;11.98;;;7.55;;
48524;SDS011;34316;51.514;-0.178;2023-07-02T03:05:41;13.95;;;7.60;;
48524;SDS011;34316;51.514;-0.178;2023-07-02T03:07:42;11.73;;;7.30;;
48524;SDS011;34316;51.514;-0.178;2023-07-02T03:09:44;13.55;;;7.55;;
48524;SDS011;34316;51.514;-0.178;2023-07-02T03:11:46;13.73;;;7.50;;
48524;SDS011;34316;51.514;-0.178;2023-07-02T03:13:49;14.13;;;7.35;;
48524;SDS011;34316;51.514;-0.178;2023-07-02T03:15:50;13.98;;;7.80;;
48524;SDS011;34316;51.514;-0.178;2023-07-02T03:17:52;14.73;;;7.55;;
48524;SDS011;34316;51.514;-0.178;2023-07-02T03:19:54;11.15;;;6.38;;
48524;SDS011;34316;51.514;-0.178;2023-07-02T03:21:55;11.63;;;6.75;;
48524;SDS011;34316;51.514;-0.178;2023-07-02T03:23:57;12.38;;;8.27;;
48524;SDS011;34316;51.514;-0.178;2023-07-02T03:25:59;11.00;;;7.00;;
48524;SDS011;34316;51.514;-0.178;2023-07-02T03:28:00;12.68;;;7.05;;
48524;SDS011;34316;51.514;-0.178;2023-07-02T03:30:02;12.48;;;7.90;;
48524;SDS011;34316;51.514;-0.178;2023-07-02T03:32:05;11.90;;;7.03;;
48524;SDS011;34316;51.514;-0.178;2023-07-02T03:34:07;13.38;;;7.35;;
48524;SDS011;34316;51.514;-0.178;2023-07-02T03:36:10;15.55;;;7.18;;
48524;SDS011;34316;51.514;-0.178;2023-07-02T03:38:12;14.68;;;7.15;;
48524;SDS011;34316;51.514;-0.178;2023-07-02T03:40:14;8.93;;;6.60;;
48524;SDS011;34316;51.514;-0.178;2023-07-02T03:42:15;11.48;;;7.38;;
48524;SDS011;34316;51.514;-0.178;2023-07-02T03:44:17;12.32;;;7.22;;
48524;SDS011;34316;51.514;-0.178;2023-07-02T03:46:21;10.77;;;7.47;;
48524;SDS011;34316;51.514;-0.178;2023-07-02T03:48:22;10.65;;;6.68;;
48524;SDS011;34316;51.514;-0.178;2023-07-02T03:50:24;18.33;;;7.68;;
48524;SDS011;34316;51.514;-0.178;2023-07-02T03:52:26;17.27;;;7.57;;
48524;SDS011;34316;51.514;-0.178;2023-07-02T03:54:27;9.25;;;7.35;;
48524;SDS011;34316;51.514;-0.178;2023-07-02T03:56:29;15.27;;;8.07;;
48524;SDS011;34316;51.514;-0.178;2023-07-02T03:58:31;10.98;;;7.13;;
48524;SDS011;34316;51.514;-0.178;2023-07-02T04:00:33;14.65;;;6.97;;
48524;SDS011;34316;51.514;-0.178;2023-07-02T04:02:34;17.08;;;7.35;;
48524;SDS011;34316;51.514;-0.178;2023-07-02T04:04:36;13.20;;;8.10;;
48524;SDS011;34316;51.514;-0.178;2023-07-02T04:06:38;10.45;;;7.03;;
48524;SDS011;34316;51.514;-0.178;2023-07-02T04:08:40;11.15;;;7.13;;
48524;SDS011;34316;51.514;-0.178;2023-07-02T04:10:42;12.32;;;7.03;;
48524;SDS011;34316;51.514;-0.178;2023-07-02T04:12:43;9.70;;;7.00;;
48524;SDS011;34316;51.514;-0.178;2023-07-02T04:14:46;14.63;;;7.70;;
48524;SDS011;34316;51.514;-0.178;2023-07-02T04:16:47;9.40;;;7.10;;
48524;SDS011;34316;51.514;-0.178;2023-07-02T04:18:49;11.15;;;7.25;;
48524;SDS011;34316;51.514;-0.178;2023-07-02T04:20:51;12.27;;;7.90;;
48524;SDS011;34316;51.514;-0.178;2023-07-02T04:22:52;15.75;;;7.05;;
48524;SDS011;34316;51.514;-0.178;2023-07-02T04:24:54;12.68;;;7.32;;
48524;SDS011;34316;51.514;-0.178;2023-07-02T04:27:02;10.82;;;6.97;;
48524;SDS011;34316;51.514;-0.178;2023-07-02T04:29:24;12.95;;;7.40;;
48524;SDS011;34316;51.514;-0.178;2023-07-02T04:31:25;11.73;;;8.00;;
48524;SDS011;34316;51.514;-0.178;2023-07-02T04:33:28;12.40;;;7.50;;
48524;SDS011;34316;51.514;-0.178;2023-07-02T04:35:37;13.60;;;8.18;;
48524;SDS011;34316;51.514;-0.178;2023-07-02T04:37:39;10.93;;;7.60;;
48524;SDS011;34316;51.514;-0.178;2023-07-02T04:39:40;11.50;;;7.78;;
48524;SDS011;34316;51.514;-0.178;2023-07-02T04:41:42;13.55;;;7.95;;
48524;SDS011;34316;51.514;-0.178;2023-07-02T04:43:44;12.73;;;8.13;;
48524;SDS011;34316;51.514;-0.178;2023-07-02T04:45:46;14.63;;;7.40;;
48524;SDS011;34316;51.514;-0.178;2023-07-02T04:47:50;13.40;;;8.00;;
48524;SDS011;34316;51.514;-0.178;2023-07-02T04:49:52;12.50;;;7.43;;
48524;SDS011;34316;51.514;-0.178;2023-07-02T04:51:53;11.27;;;8.10;;
48524;SDS011;34316;51.514;-0.178;2023-07-02T04:53:55;10.80;;;7.55;;
48524;SDS011;34316;51.514;-0.178;2023-07-02T04:55:57;12.25;;;8.32;;
48524;SDS011;34316;51.514;-0.178;2023-07-02T04:57:59;16.05;;;8.90;;
48524;SDS011;34316;51.514;-0.178;2023-07-02T05:00:01;12.85;;;8.50;;
48524;SDS011;34316;51.514;-0.178;2023-07-02T05:02:05;15.27;;;8.10;;
48524;SDS011;34316;51.514;-0.178;2023-07-02T05:04:09;15.20;;;8.27;;
48524;SDS011;34316;51.514;-0.178;2023-07-02T05:06:12;12.68;;;8.07;;
48524;SDS011;34316;51.514;-0.178;2023-07-02T05:08:14;13.48;;;8.38;;
48524;SDS011;34316;51.514;-0.178;2023-07-02T05:10:16;14.23;;;8.02;;
48524;SDS011;34316;51.514;-0.178;2023-07-02T05:12:18;15.77;;;10.02;;
48524;SDS011;34316;51.514;-0.178;2023-07-02T05:14:20;15.13;;;9.80;;
48524;SDS011;34316;51.514;-0.178;2023-07-02T05:16:22;13.27;;;8.00;;
48524;SDS011;34316;51.514;-0.178;2023-07-02T05:18:23;13.20;;;8.25;;
48524;SDS011;34316;51.514;-0.178;2023-07-02T05:20:25;17.27;;;8.43;;
48524;SDS011;34316;51.514;-0.178;2023-07-02T05:22:27;12.90;;;8.40;;
48524;SDS011;34316;51.514;-0.178;2023-07-02T05:24:28;12.70;;;8.57;;
48524;SDS011;34316;51.514;-0.178;2023-07-02T05:26:30;13.52;;;8.60;;
48524;SDS011;34316;51.514;-0.178;2023-07-02T05:28:32;12.88;;;7.88;;
48524;SDS011;34316;51.514;-0.178;2023-07-02T05:30:33;15.65;;;8.85;;
48524;SDS011;34316;51.514;-0.178;2023-07-02T05:32:35;19.33;;;8.77;;
48524;SDS011;34316;51.514;-0.178;2023-07-02T05:34:37;17.95;;;8.55;;
48524;SDS011;34316;51.514;-0.178;2023-07-02T05:36:39;14.90;;;8.50;;
48524;SDS011;34316;51.514;-0.178;2023-07-02T05:38:40;13.38;;;8.30;;
48524;SDS011;34316;51.514;-0.178;2023-07-02T05:40:42;13.45;;;8.77;;
48524;SDS011;34316;51.514;-0.178;2023-07-02T05:42:44;14.30;;;8.75;;
48524;SDS011;34316;51.514;-0.178;2023-07-02T05:44:45;18.52;;;8.55;;
48524;SDS011;34316;51.514;-0.178;2023-07-02T05:46:47;14.75;;;8.95;;
48524;SDS011;34316;51.514;-0.178;2023-07-02T05:48:49;14.18;;;9.45;;
48524;SDS011;34316;51.514;-0.178;2023-07-02T05:50:50;14.68;;;8.80;;
48524;SDS011;34316;51.514;-0.178;2023-07-02T05:52:52;12.38;;;7.95;;
48524;SDS011;34316;51.514;-0.178;2023-07-02T05:54:54;15.75;;;9.30;;
48524;SDS011;34316;51.514;-0.178;2023-07-02T05:56:55;13.13;;;8.52;;
48524;SDS011;34316;51.514;-0.178;2023-07-02T05:58:57;17.58;;;9.25;;
48524;SDS011;34316;51.514;-0.178;2023-07-02T06:00:59;15.07;;;9.20;;
48524;SDS011;34316;51.514;-0.178;2023-07-02T06:03:02;17.73;;;10.13;;
48524;SDS011;34316;51.514;-0.178;2023-07-02T06:05:05;15.07;;;9.47;;
48524;SDS011;34316;51.514;-0.178;2023-07-02T06:07:07;16.63;;;10.43;;
48524;SDS011;34316;51.514;-0.178;2023-07-02T06:09:08;13.82;;;9.52;;
48524;SDS011;34316;51.514;-0.178;2023-07-02T06:11:10;16.60;;;9.55;;
48524;SDS011;34316;51.514;-0.178;2023-07-02T06:13:12;15.30;;;9.30;;
48524;SDS011;34316;51.514;-0.178;2023-07-02T06:15:14;16.15;;;10.23;;
48524;SDS011;34316;51.514;-0.178;2023-07-02T06:17:16;13.65;;;8.70;;
48524;SDS011;34316;51.514;-0.178;2023-07-02T06:19:17;13.30;;;8.80;;
48524;SDS011;34316;51.514;-0.178;2023-07-02T06:21:19;11.88;;;8.38;;
48524;SDS011;34316;51.514;-0.178;2023-07-02T06:23:21;12.85;;;8.77;;
48524;SDS011;34316;51.514;-0.178;2023-07-02T06:25:23;13.65;;;8.63;;
48524;SDS011;34316;51.514;-0.178;2023-07-02T06:27:24;12.30;;;8.60;;
48524;SDS011;34316;51.514;-0.178;2023-07-02T06:29:26;14.75;;;8.70;;
48524;SDS011;34316;51.514;-0.178;2023-07-02T06:31:29;14.00;;;8.70;;
48524;SDS011;34316;51.514;-0.178;2023-07-02T06:33:31;15.88;;;8.32;;
48524;SDS011;34316;51.514;-0.178;2023-07-02T06:35:33;13.43;;;8.57;;
48524;SDS011;34316;51.514;-0.178;2023-07-02T06:37:35;13.77;;;8.02;;
48524;SDS011;34316;51.514;-0.178;2023-07-02T06:39:37;13.82;;;8.13;;
48524;SDS011;34316;51.514;-0.178;2023-07-02T06:41:38;17.65;;;9.52;;
48524;SDS011;34316;51.514;-0.178;2023-07-02T06:43:43;14.57;;;8.60;;
48524;SDS011;34316;51.514;-0.178;2023-07-02T06:45:45;15.10;;;9.20;;
48524;SDS011;34316;51.514;-0.178;2023-07-02T06:47:47;14.02;;;8.60;;
48524;SDS011;34316;51.514;-0.178;2023-07-02T06:49:49;17.83;;;8.38;;
48524;SDS011;34316;51.514;-0.178;2023-07-02T06:51:50;11.82;;;8.57;;
48524;SDS011;34316;51.514;-0.178;2023-07-02T06:53:52;17.98;;;8.75;;
48524;SDS011;34316;51.514;-0.178;2023-07-02T06:55:54;16.92;;;8.32;;
48524;SDS011;34316;51.514;-0.178;2023-07-02T06:57:55;14.75;;;8.88;;
48524;SDS011;34316;51.514;-0.178;2023-07-02T06:59:58;16.67;;;8.82;;
48524;SDS011;34316;51.514;-0.178;2023-07-02T07:02:01;16.63;;;8.80;;
48524;SDS011;34316;51.514;-0.178;2023-07-02T07:04:03;18.83;;;8.75;;
48524;SDS011;34316;51.514;-0.178;2023-07-02T07:06:05;14.27;;;8.60;;
48524;SDS011;34316;51.514;-0.178;2023-07-02T07:08:07;11.45;;;8.32;;
48524;SDS011;34316;51.514;-0.178;2023-07-02T07:10:08;14.73;;;8.15;;
48524;SDS011;34316;51.514;-0.178;2023-07-02T07:12:10;22.58;;;7.82;;
48524;SDS011;34316;51.514;-0.178;2023-07-02T07:14:12;15.25;;;7.88;;
48524;SDS011;34316;51.514;-0.178;2023-07-02T07:16:14;15.63;;;7.40;;
48524;SDS011;34316;51.514;-0.178;2023-07-02T07:18:15;15.55;;;8.98;;
48524;SDS011;34316;51.514;-0.178;2023-07-02T07:20:20;14.73;;;9.02;;
48524;SDS011;34316;51.514;-0.178;2023-07-02T07:22:22;17.48;;;8.93;;
48524;SDS011;34316;51.514;-0.178;2023-07-02T07:24:23;12.70;;;9.00;;
48524;SDS011;34316;51.514;-0.178;2023-07-02T07:26:25;13.85;;;8.73;;
48524;SDS011;34316;51.514;-0.178;2023-07-02T07:28:27;18.17;;;8.95;;
48524;SDS011;34316;51.514;-0.178;2023-07-02T07:30:28;17.38;;;7.93;;
48524;SDS011;34316;51.514;-0.178;2023-07-02T07:32:33;13.85;;;8.35;;
48524;SDS011;34316;51.514;-0.178;2023-07-02T07:34:35;13.20;;;7.85;;
48524;SDS011;34316;51.514;-0.178;2023-07-02T07:36:37;13.38;;;7.65;;
48524;SDS011;34316;51.514;-0.178;2023-07-02T07:38:38;11.75;;;7.53;;
48524;SDS011;34316;51.514;-0.178;2023-07-02T07:40:40;14.50;;;7.68;;
48524;SDS011;34316;51.514;-0.178;2023-07-02T07:42:43;11.57;;;7.53;;
48524;SDS011;34316;51.514;-0.178;2023-07-02T07:44:45;9.80;;;7.70;;
48524;SDS011;34316;51.514;-0.178;2023-07-02T07:46:47;10.23;;;7.68;;
48524;SDS011;34316;51.514;-0.178;2023-07-02T07:48:49;12.35;;;7.72;;
48524;SDS011;34316;51.514;-0.178;2023-07-02T07:50:51;12.13;;;8.02;;
48524;SDS011;34316;51.514;-0.178;2023-07-02T07:52:52;12.18;;;7.57;;
48524;SDS011;34316;51.514;-0.178;2023-07-02T07:54:54;18.23;;;7.93;;
48524;SDS011;34316;51.514;-0.178;2023-07-02T07:56:56;10.32;;;7.13;;
48524;SDS011;34316;51.514;-0.178;2023-07-02T07:58:58;13.52;;;7.70;;
48524;SDS011;34316;51.514;-0.178;2023-07-02T08:00:59;10.75;;;7.25;;
48524;SDS011;34316;51.514;-0.178;2023-07-02T08:03:01;12.82;;;7.18;;
48524;SDS011;34316;51.514;-0.178;2023-07-02T08:05:05;9.75;;;6.75;;
48524;SDS011;34316;51.514;-0.178;2023-07-02T08:07:06;10.95;;;7.43;;
48524;SDS011;34316;51.514;-0.178;2023-07-02T08:11:12;11.75;;;7.32;;
48524;SDS011;34316;51.514;-0.178;2023-07-02T08:13:14;9.60;;;6.47;;
48524;SDS011;34316;51.514;-0.178;2023-07-02T08:15:15;12.02;;;6.78;;
48524;SDS011;34316;51.514;-0.178;2023-07-02T08:17:17;13.57;;;7.15;;
48524;SDS011;34316;51.514;-0.178;2023-07-02T08:19:19;10.65;;;6.30;;
48524;SDS011;34316;51.514;-0.178;2023-07-02T08:21:22;8.25;;;6.00;;
48524;SDS011;34316;51.514;-0.178;2023-07-02T08:23:24;8.40;;;6.25;;
48524;SDS011;34316;51.514;-0.178;2023-07-02T08:25:25;8.27;;;6.50;;
48524;SDS011;34316;51.514;-0.178;2023-07-02T08:27:28;12.05;;;6.75;;
48524;SDS011;34316;51.514;-0.178;2023-07-02T08:29:30;11.10;;;6.95;;
48524;SDS011;34316;51.514;-0.178;2023-07-02T08:31:32;9.82;;;6.43;;
48524;SDS011;34316;51.514;-0.178;2023-07-02T08:33:33;11.68;;;7.00;;
48524;SDS011;34316;51.514;-0.178;2023-07-02T08:35:35;14.63;;;6.38;;
48524;SDS011;34316;51.514;-0.178;2023-07-02T08:37:37;10.40;;;7.32;;
48524;SDS011;34316;51.514;-0.178;2023-07-02T08:39:43;12.70;;;6.38;;
48524;SDS011;34316;51.514;-0.178;2023-07-02T08:41:45;12.80;;;6.72;;
48524;SDS011;34316;51.514;-0.178;2023-07-02T08:43:48;8.48;;;6.60;;
48524;SDS011;34316;51.514;-0.178;2023-07-02T08:45:50;9.48;;;6.72;;
48524;SDS011;34316;51.514;-0.178;2023-07-02T08:47:52;10.30;;;6.00;;
48524;SDS011;34316;51.514;-0.178;2023-07-02T08:49:57;10.90;;;6.43;;
48524;SDS011;34316;51.514;-0.178;2023-07-02T08:51:59;13.32;;;6.70;;
48524;SDS011;34316;51.514;-0.178;2023-07-02T08:54:01;10.63;;;7.78;;
48524;SDS011;34316;51.514;-0.178;2023-07-02T08:56:04;9.38;;;6.80;;
48524;SDS011;34316;51.514;-0.178;2023-07-02T08:58:06;11.50;;;7.05;;
48524;SDS011;34316;51.514;-0.178;2023-07-02T09:00:08;16.50;;;7.40;;
48524;SDS011;34316;51.514;-0.178;2023-07-02T09:02:11;11.02;;;6.68;;
48524;SDS011;34316;51.514;-0.178;2023-07-02T09:04:20;11.20;;;6.85;;
48524;SDS011;34316;51.514;-0.178;2023-07-02T09:06:24;11.00;;;6.65;;
48524;SDS011;34316;51.514;-0.178;2023-07-02T09:08:26;14.70;;;6.90;;
48524;SDS011;34316;51.514;-0.178;2023-07-02T09:10:29;11.27;;;6.68;;
48524;SDS011;34316;51.514;-0.178;2023-07-02T09:12:32;10.50;;;6.63;;
48524;SDS011;34316;51.514;-0.178;2023-07-02T09:14:35;13.60;;;6.82;;
48524;SDS011;34316;51.514;-0.178;2023-07-02T09:16:37;12.13;;;6.47;;
48524;SDS011;34316;51.514;-0.178;2023-07-02T09:18:41;8.55;;;5.68;;
48524;SDS011;34316;51.514;-0.178;2023-07-02T09:20:43;9.65;;;5.75;;
48524;SDS011;34316;51.514;-0.178;2023-07-02T09:22:53;11.07;;;6.30;;
48524;SDS011;34316;51.514;-0.178;2023-07-02T09:24:59;9.00;;;6.18;;
48524;SDS011;34316;51.514;-0.178;2023-07-02T09:27:01;8.82;;;6.32;;
48524;SDS011;34316;51.514;-0.178;2023-07-02T09:29:03;10.55;;;5.93;;
48524;SDS011;34316;51.514;-0.178;2023-07-02T09:31:05;9.80;;;6.00;;
48524;SDS011;34316;51.514;-0.178;2023-07-02T09:33:06;9.38;;;6.60;;
48524;SDS011;34316;51.514;-0.178;2023-07-02T09:35:09;9.10;;;6.10;;
48524;SDS011;34316;51.514;-0.178;2023-07-02T09:37:11;14.32;;;6.53;;
48524;SDS011;34316;51.514;-0.178;2023-07-02T09:39:14;10.52;;;6.25;;
48524;SDS011;34316;51.514;-0.178;2023-07-02T09:41:19;7.97;;;6.00;;
48524;SDS011;34316;51.514;-0.178;2023-07-02T09:43:21;7.45;;;5.70;;
48524;SDS011;34316;51.514;-0.178;2023-07-02T09:45:22;10.88;;;6.15;;
48524;SDS011;34316;51.514;-0.178;2023-07-02T09:47:26;9.70;;;6.10;;
48524;SDS011;34316;51.514;-0.178;2023-07-02T09:52:10;8.75;;;5.70;;
48524;SDS011;34316;51.514;-0.178;2023-07-02T09:54:12;9.25;;;5.72;;
48524;SDS011;34316;51.514;-0.178;2023-07-02T09:56:14;9.63;;;5.80;;
48524;SDS011;34316;51.514;-0.178;2023-07-02T09:58:16;9.30;;;5.45;;
48524;SDS011;34316;51.514;-0.178;2023-07-02T10:00:18;10.32;;;6.10;;
48524;SDS011;34316;51.514;-0.178;2023-07-02T10:02:20;10.13;;;6.47;;
48524;SDS011;34316;51.514;-0.178;2023-07-02T10:04:23;11.20;;;6.38;;
48524;SDS011;34316;51.514;-0.178;2023-07-02T10:06:27;16.30;;;6.50;;
48524;SDS011;34316;51.514;-0.178;2023-07-02T10:08:29;10.52;;;6.38;;
48524;SDS011;34316;51.514;-0.178;2023-07-02T10:10:31;10.13;;;6.10;;
48524;SDS011;34316;51.514;-0.178;2023-07-02T10:12:33;8.43;;;5.20;;
48524;SDS011;34316;51.514;-0.178;2023-07-02T10:14:42;14.70;;;5.78;;
48524;SDS011;34316;51.514;-0.178;2023-07-02T10:16:51;9.75;;;5.40;;
48524;SDS011;34316;51.514;-0.178;2023-07-02T10:18:53;8.80;;;5.05;;
48524;SDS011;34316;51.514;-0.178;2023-07-02T10:20:55;9.07;;;5.68;;
48524;SDS011;34316;51.514;-0.178;2023-07-02T10:22:57;12.73;;;5.45;;
48524;SDS011;34316;51.514;-0.178;2023-07-02T10:24:59;7.60;;;5.28;;
48524;SDS011;34316;51.514;-0.178;2023-07-02T10:27:07;8.77;;;4.85;;
48524;SDS011;34316;51.514;-0.178;2023-07-02T10:29:09;8.65;;;5.35;;
48524;SDS011;34316;51.514;-0.178;2023-07-02T10:31:20;7.63;;;4.47;;
48524;SDS011;34316;51.514;-0.178;2023-07-02T10:33:22;7.80;;;4.82;;
48524;SDS011;34316;51.514;-0.178;2023-07-02T10:35:25;6.97;;;4.97;;
48524;SDS011;34316;51.514;-0.178;2023-07-02T10:37:27;9.82;;;5.20;;
48524;SDS011;34316;51.514;-0.178;2023-07-02T10:39:38;9.75;;;5.40;;
48524;SDS011;34316;51.514;-0.178;2023-07-02T10:41:40;13.88;;;5.25;;
48524;SDS011;34316;51.514;-0.178;2023-07-02T10:43:42;7.53;;;5.07;;
48524;SDS011;34316;51.514;-0.178;2023-07-02T10:45:43;5.45;;;4.50;;
48524;SDS011;34316;51.514;-0.178;2023-07-02T10:47:45;8.35;;;4.80;;
48524;SDS011;34316;51.514;-0.178;2023-07-02T10:49:47;8.50;;;5.50;;
48524;SDS011;34316;51.514;-0.178;2023-07-02T10:52:01;7.13;;;5.35;;
48524;SDS011;34316;51.514;-0.178;2023-07-02T10:54:05;7.85;;;4.75;;
48524;SDS011;34316;51.514;-0.178;2023-07-02T10:56:07;6.85;;;5.22;;
48524;SDS011;34316;51.514;-0.178;2023-07-02T10:58:09;6.32;;;4.85;;
48524;SDS011;34316;51.514;-0.178;2023-07-02T11:00:11;8.20;;;5.30;;
48524;SDS011;34316;51.514;-0.178;2023-07-02T11:02:13;5.85;;;4.45;;
48524;SDS011;34316;51.514;-0.178;2023-07-02T11:04:16;6.47;;;4.70;;
48524;SDS011;34316;51.514;-0.178;2023-07-02T11:06:18;5.78;;;4.40;;
48524;SDS011;34316;51.514;-0.178;2023-07-02T11:08:19;8.10;;;5.07;;
48524;SDS011;34316;51.514;-0.178;2023-07-02T11:12:28;6.53;;;4.63;;
48524;SDS011;34316;51.514;-0.178;2023-07-02T11:16:32;9.18;;;4.50;;
48524;SDS011;34316;51.514;-0.178;2023-07-02T11:18:38;5.93;;;4.07;;
48524;SDS011;34316;51.514;-0.178;2023-07-02T11:20:41;7.00;;;4.93;;
48524;SDS011;34316;51.514;-0.178;2023-07-02T11:22:44;9.40;;;5.22;;
48524;SDS011;34316;51.514;-0.178;2023-07-02T11:24:45;5.82;;;4.70;;
48524;SDS011;34316;51.514;-0.178;2023-07-02T11:26:47;5.63;;;4.10;;
48524;SDS011;34316;51.514;-0.178;2023-07-02T11:28:49;9.60;;;5.70;;
48524;SDS011;34316;51.514;-0.178;2023-07-02T11:30:52;8.45;;;4.82;;
48524;SDS011;34316;51.514;-0.178;2023-07-02T11:32:54;10.05;;;5.55;;
48524;SDS011;34316;51.514;-0.178;2023-07-02T11:34:56;11.20;;;5.45;;
48524;SDS011;34316;51.514;-0.178;2023-07-02T11:36:58;8.18;;;5.45;;
48524;SDS011;34316;51.514;-0.178;2023-07-02T11:38:59;10.77;;;5.03;;
48524;SDS011;34316;51.514;-0.178;2023-07-02T11:41:02;9.25;;;5.80;;
48524;SDS011;34316;51.514;-0.178;2023-07-02T11:43:05;7.13;;;5.68;;
48524;SDS011;34316;51.514;-0.178;2023-07-02T11:45:07;6.93;;;4.80;;
48524;SDS011;34316;51.514;-0.178;2023-07-02T11:47:09;7.63;;;5.32;;
48524;SDS011;34316;51.514;-0.178;2023-07-02T11:49:11;7.57;;;4.47;;
48524;SDS011;34316;51.514;-0.178;2023-07-02T11:51:13;6.53;;;4.35;;
48524;SDS011;34316;51.514;-0.178;2023-07-02T11:53:15;8.65;;;4.38;;
48524;SDS011;34316;51.514;-0.178;2023-07-02T11:55:17;8.88;;;5.15;;
48524;SDS011;34316;51.514;-0.178;2023-07-02T11:57:20;9.15;;;4.30;;
48524;SDS011;34316;51.514;-0.178;2023-07-02T11:59:23;5.78;;;3.60;;
48524;SDS011;34316;51.514;-0.178;2023-07-02T12:01:25;7.38;;;3.78;;
48524;SDS011;34316;51.514;-0.178;2023-07-02T12:03:27;6.20;;;3.58;;
48524;SDS011;34316;51.514;-0.178;2023-07-02T12:05:29;5.38;;;3.58;;
48524;SDS011;34316;51.514;-0.178;2023-07-02T12:07:31;4.63;;;3.55;;
48524;SDS011;34316;51.514;-0.178;2023-07-02T12:09:32;4.55;;;3.50;;
48524;SDS011;34316;51.514;-0.178;2023-07-02T12:11:34;5.43;;;4.15;;